X  Close Metar Aviation Weather Data     KSWO Stillwater Regional Airport
Temperature
72°F Temperature
39°F Dewpoint
31% Humidity



Wind
14 MPH
23 KM/H
6 M/S
12 KTS



180°
S
Current Conditions

Clear Clear
Pressure 1021.32 (hPa) - 30.16 (inHg)
Visibility 10 (mile) - 16.1 (km)
Airport
Airport-code KSWO

Location: Stillwater Regional Airport
Distance: 4 (mi)

Metar:
KSWO 301553Z 18012KT 10SM CLR 22/04 A3016 RMK AO2 SLP202 T02170044

Time: 09-30-2022 10:53 am CDT